Sikinos — 9HA2865 — position and weather

sailwx.info

Track history (hours):
 
Tides and Currents Weather Stations Pressure Air Temp Water Temp Dewpoint Dewpoint Depression Visibility Wind Speed Wind Dir Waves Ship Positions

Sikinos

Last reported at 2017-Jan-19 23:33 UTC. Time now 2017-Jan-19 23:35 UTC.
Position N 51°53' E 004°19'.

Length 90 m; draft 4.6 m.

Type: Ship (hazmat cat A). MMSI: 256462000.

Date/timePositionNaut miles runAvg speedWind from/ knotsBaromVisibWave heightAir tempDewpointWater temp
2017-Jan-19 23:33N 51°53' E 004°19'0 0.0
2017-Jan-19 22:27N 51°53' E 004°19'0 0.0
2017-Jan-19 21:33N 51°53' E 004°19'2 2.0
2017-Jan-19 20:33N 51°54' E 004°17'1111.4
2017-Jan-19 19:33N 51°60' E 004°01'10 9.9
2017-Jan-19 18:33N 51°59' E 003°44'1212.3
2017-Jan-19 17:33N 51°55' E 003°26'2511.4
2017-Jan-19 15:22N 51°45' E 002°48'8 9.4
2017-Jan-19 14:32N 51°38' E 002°43'1010.3
2017-Jan-19 13:33N 51°28' E 002°43'9 8.7
2017-Jan-19 12:33N 51°22' E 002°53'1212.3
2017-Jan-19 11:33N 51°21' E 003°12'1 0.9
2017-Jan-19 10:32N 51°20' E 003°12'0 0.0
2017-Jan-19 09:32N 51°20' E 003°12'0 0.0
2017-Jan-19 08:32N 51°20' E 003°12'0 0.0
2017-Jan-19 07:32N 51°20' E 003°12'0 0.0
2017-Jan-19 06:29N 51°20' E 003°12'0 0.0
2017-Jan-19 05:32N 51°20' E 003°12'0 0.0
2017-Jan-19 04:32N 51°20' E 003°12'0 0.0
2017-Jan-19 03:32N 51°20' E 003°12'0 0.0
2017-Jan-19 02:32N 51°20' E 003°12'0 0.0
2017-Jan-19 01:32N 51°20' E 003°12'3 2.9
2017-Jan-19 00:33N 51°22' E 003°09'1111.0
2017-Jan-18 23:34N 51°22' E 002°51'9 9.1
2017-Jan-18 22:33N 51°29' E 002°42'1413.0
2017-Jan-18 21:30N 51°42' E 002°42'25 8.2
2017-Jan-18 18:30N 52°03' E 003°05'1111.8
2017-Jan-18 17:33N 52°03' E 003°23'1211.9
2017-Jan-18 16:33N 52°04' E 003°43'1312.8
2017-Jan-18 15:34N 52°08' E 004°02'6 5.6
2017-Jan-18 14:30N 52°11' E 004°11'0 0.0
2017-Jan-18 13:24N 52°11' E 004°11'0 0.1
2017-Jan-18 12:30N 52°11' E 004°11'0 0.1
2017-Jan-18 11:27N 52°11' E 004°11'0 0.1
2017-Jan-18 10:33N 52°11' E 004°11'0 0.1
2017-Jan-18 08:33N 52°11' E 004°11'1 0.8
2017-Jan-18 07:29N 52°11' E 004°11'0 0.0
2017-Jan-18 06:32N 52°11' E 004°11'0 0.0
2017-Jan-18 05:32N 52°11' E 004°11'0 0.1
2017-Jan-18 04:32N 52°11' E 004°11'0 0.1
2017-Jan-18 03:32N 52°10' E 004°11'0 0.0
2017-Jan-18 02:32N 52°10' E 004°11'0 0.0
2017-Jan-18 01:32N 52°10' E 004°11'0 0.0
2017-Jan-18 00:32N 52°10' E 004°11'2 2.2
2017-Jan-17 23:33N 52°10' E 004°08'1111.5
2017-Jan-17 22:33N 52°05' E 003°51'1211.9
2017-Jan-17 21:33N 51°57' E 003°36'1312.6
2017-Jan-17 20:33N 51°54' E 003°16'1413.0
2017-Jan-17 19:31N 51°51' E 002°55'1413.5
2017-Jan-17 18:27N 51°44' E 002°35'1314.4
2017-Jan-17 17:33N 51°34' E 002°21'1514.5
2017-Jan-17 16:33N 51°22' E 002°09'1414.0
2017-Jan-17 15:33N 51°11' E 001°54'1515.5
2017-Jan-17 14:33N 51°01' E 001°36'1515.0
2017-Jan-17 13:33N 50°48' E 001°24'1413.7
2017-Jan-17 12:32N 50°36' E 001°11'5313.2
2017-Jan-17 08:33N 49°59' E 000°13'1211.6
2017-Jan-17 07:33N 49°51' W 000°00'1010.4
2017-Jan-17 06:33N 49°43' W 000°09'1312.7
2017-Jan-17 05:33N 49°31' E 000°00'6 6.0
2017-Jan-17 04:32N 49°28' E 000°09'0 0.0
2017-Jan-17 03:32N 49°28' E 000°09'0 0.0
2017-Jan-17 02:32N 49°28' E 000°09'0 0.0
2017-Jan-17 01:32N 49°28' E 000°09'0 0.0
2017-Jan-17 00:32N 49°28' E 000°09'0 0.0
2017-Jan-16 23:32N 49°28' E 000°09'0 0.0
2017-Jan-16 22:32N 49°28' E 000°09'1 1.4
2017-Jan-16 21:33N 49°29' E 000°07'9 9.0
2017-Jan-16 20:33N 49°33' W 000°06'9 9.1
2017-Jan-16 19:33N 49°42' W 000°09'10 9.9
2017-Jan-16 18:33N 49°52' W 000°09'1110.8
2017-Jan-16 17:33N 50°02' W 000°07'1212.2
2017-Jan-16 16:33N 50°14' W 000°10'1211.2
2017-Jan-16 15:28N 50°26' W 000°06'1213.3
2017-Jan-16 14:33N 50°30' E 000°12'1212.3
2017-Jan-16 13:33N 50°34' E 000°30'1111.3
2017-Jan-16 12:33N 50°40' E 000°46'2411.8
2017-Jan-16 10:32N 50°54' E 001°16'1414.7
2017-Jan-16 09:33N 51°04' E 001°32'1010.2
2017-Jan-16 08:33N 51°01' E 001°48'1111.1
2017-Jan-16 07:33N 51°03' E 002°06'4 3.3
2017-Jan-16 06:22N 51°01' E 002°11'0 0.0
2017-Jan-16 05:28N 51°01' E 002°11'0 0.0
2017-Jan-16 04:31N 51°01' E 002°11'0 0.0
2017-Jan-15 22:28N 51°01' E 002°11'0 0.0
2017-Jan-15 21:28N 51°01' E 002°11'4 4.3
2017-Jan-15 20:31N 51°03' E 002°05'9 9.4
2017-Jan-15 19:33N 51°01' E 001°51'8 8.5
2017-Jan-15 18:33N 51°06' E 002°02'1211.6
2017-Jan-15 17:29N 51°11' E 002°21'1011.0
2017-Jan-15 16:33N 51°17' E 002°32'10 9.5
2017-Jan-15 15:33N 51°22' E 002°46'10 9.6
2017-Jan-15 14:33N 51°22' E 003°01'7 6.7
2017-Jan-15 13:33N 51°21' E 003°12'0 0.0
2017-Jan-15 12:33N 51°21' E 003°12'0 0.0
2017-Jan-15 11:33N 51°21' E 003°12'0 0.0
2017-Jan-15 10:33N 51°21' E 003°12'0 0.0
2017-Jan-15 09:33N 51°21' E 003°12'0 0.0
2017-Jan-15 08:33N 51°21' E 003°12'0 0.0
2017-Jan-15 07:33N 51°21' E 003°12'0 0.0
2017-Jan-15 06:30N 51°21' E 003°12'0 0.0
2017-Jan-15 05:33N 51°21' E 003°12'0 0.0
2017-Jan-15 04:33N 51°21' E 003°12'0 0.0
2017-Jan-15 03:29N 51°21' E 003°12'0 0.0
2017-Jan-15 02:33N 51°21' E 003°12'0 0.0
2017-Jan-15 01:33N 51°21' E 003°12'0 0.0
2017-Jan-15 00:33N 51°21' E 003°12'0 0.0
2017-Jan-14 23:33N 51°21' E 003°12'4 4.0
2017-Jan-14 22:34N 51°22' E 003°06'10 9.9
2017-Jan-14 21:33N 51°22' E 002°50'9 8.5
2017-Jan-14 20:33N 51°21' E 002°36'3 2.8
2017-Jan-14 19:31N 51°20' E 002°32'0 0.1
2017-Jan-14 18:31N 51°20' E 002°32'0 0.1
2017-Jan-14 17:28N 51°20' E 002°32'0 0.1
2017-Jan-14 16:31N 51°20' E 002°32'0 0.1
2017-Jan-14 15:34N 51°20' E 002°32'0 0.0
2017-Jan-14 14:31N 51°20' E 002°32'5 4.8
2017-Jan-14 13:33N 51°21' E 002°39'5 4.7
2017-Jan-14 12:33N 51°20' E 002°32'0 0.2
2017-Jan-14 11:33N 51°20' E 002°32'0 0.1
2017-Jan-14 10:33N 51°20' E 002°31'0 0.0
2017-Jan-14 09:33N 51°20' E 002°31'0 0.0
2017-Jan-14 08:33N 51°20' E 002°32'0 0.1
2017-Jan-14 07:33N 51°20' E 002°32'0 0.1
2017-Jan-14 06:33N 51°20' E 002°32'0 0.1
2017-Jan-14 05:33N 51°20' E 002°32'0 0.0
2017-Jan-14 04:33N 51°20' E 002°32'0 0.1
2017-Jan-14 03:33N 51°20' E 002°32'0 0.0
2017-Jan-13 23:33N 51°20' E 002°32'0 0.1
2017-Jan-13 22:33N 51°20' E 002°32'0 0.0
2017-Jan-13 21:30N 51°20' E 002°31'2 2.4
2017-Jan-13 20:33N 51°18' E 002°31'6 6.2
2017-Jan-13 19:33N 51°13' E 002°26'7 7.2
2017-Jan-13 18:33N 51°10' E 002°15'7 7.3
2017-Jan-13 17:34N 51°07' E 002°04'8 8.1
2017-Jan-13 16:33N 51°04' E 001°52'3 2.6
2017-Jan-13 15:33N 51°03' E 001°56'8 8.3
2017-Jan-13 14:33N 51°03' E 002°09'2 2.2
2017-Jan-13 13:33N 51°01' E 002°11'0 0.0
2017-Jan-13 12:30N 51°01' E 002°11'0 0.0
2017-Jan-13 11:27N 51°01' E 002°11'0 0.0
2017-Jan-13 10:33N 51°01' E 002°11'0 0.0
2017-Jan-13 09:30N 51°01' E 002°11'0 0.0
2017-Jan-13 08:27N 51°01' E 002°11'0 0.0
2017-Jan-13 07:30N 51°01' E 002°11'0 0.0
2017-Jan-13 06:33N 51°01' E 002°11'0 0.0
2017-Jan-13 05:33N 51°01' E 002°11'0 0.0
2017-Jan-13 04:27N 51°01' E 002°11'0 0.0
2017-Jan-13 03:33N 51°01' E 002°11'0 0.0
2017-Jan-13 02:27N 51°01' E 002°11'0 0.0
2017-Jan-13 01:03N 51°01' E 002°11'0 0.0
2017-Jan-13 00:27N 51°01' E 002°11'0 0.0
2017-Jan-12 23:33N 51°01' E 002°11'0 0.0
2017-Jan-12 22:33N 51°01' E 002°11'0 0.0
2017-Jan-12 21:33N 51°01' E 002°11'0 0.0
2017-Jan-12 20:09N 51°01' E 002°11'0 0.0
2017-Jan-12 19:30N 51°01' E 002°11'6 6.0
2017-Jan-12 18:33N 51°03' E 002°02'7 7.3
2017-Jan-12 17:33N 51°03' E 001°51'1313.0
2017-Jan-12 16:33N 51°08' E 002°10'1212.1
2017-Jan-12 15:33N 51°14' E 002°27'1111.2
2017-Jan-12 14:34N 51°21' E 002°40'9 8.5
2017-Jan-12 13:34N 51°22' E 002°54'1010.4
2017-Jan-12 12:33N 51°22' E 003°10'2 1.7
2017-Jan-12 11:32N 51°21' E 003°12'0 0.0
2017-Jan-12 10:32N 51°21' E 003°12'0 0.0
2017-Jan-12 09:32N 51°21' E 003°12'0 0.0
2017-Jan-12 08:32N 51°21' E 003°12'0 0.0
2017-Jan-12 07:32N 51°21' E 003°12'0 0.0
2017-Jan-12 06:32N 51°21' E 003°12'0 0.0
2017-Jan-12 05:32N 51°21' E 003°12'0 0.0
2017-Jan-12 04:33N 51°21' E 003°12'0 0.0
2017-Jan-12 03:32N 51°21' E 003°12'0 0.0
2017-Jan-12 02:32N 51°21' E 003°12'0 0.0
2017-Jan-12 01:32N 51°21' E 003°12'0 0.0
2017-Jan-12 00:32N 51°21' E 003°12'0 0.0
2017-Jan-11 23:32N 51°21' E 003°12'0 0.0
2017-Jan-11 22:29N 51°21' E 003°12'0 0.0
2017-Jan-11 21:32N 51°21' E 003°12'0 0.0
2017-Jan-11 20:32N 51°21' E 003°12'0 0.0
2017-Jan-11 19:32N 51°21' E 003°12'0 0.0
2017-Jan-11 18:32N 51°21' E 003°12'0 0.0
2017-Jan-11 17:32N 51°21' E 003°12'0 0.0
2017-Jan-11 16:32N 51°21' E 003°12'0 0.0
2017-Jan-11 15:29N 51°21' E 003°12'0 0.0
2017-Jan-11 14:32N 51°21' E 003°12'0 0.0
2017-Jan-11 13:32N 51°21' E 003°12'0 0.0
2017-Jan-11 12:32N 51°21' E 003°12'0 0.0
2017-Jan-11 11:32N 51°21' E 003°12'0 0.0
2017-Jan-11 10:32N 51°21' E 003°12'0 0.0
2017-Jan-11 09:32N 51°21' E 003°12'0 0.0
2017-Jan-11 08:32N 51°21' E 003°12'12 6.1
2017-Jan-11 06:33N 51°22' E 002°53'8 8.0
2017-Jan-11 05:33N 51°26' E 002°42'55 7.8
2017-Jan-10 22:33N 52°04' E 003°46'1010.0
2017-Jan-10 21:33N 52°00' E 004°01'1211.7
2017-Jan-10 20:33N 51°54' E 004°17'1 0.5
2017-Jan-10 18:16N 51°53' E 004°17'0 0.0
2017-Jan-10 16:26N 51°53' E 004°17'0 0.0
2017-Jan-10 14:17N 51°53' E 004°17'0 0.0
2017-Jan-10 07:32N 51°53' E 004°17'2 2.3
2017-Jan-10 06:34N 51°55' E 004°15'1010.2
2017-Jan-10 05:33N 51°60' E 004°00'9 9.2
2017-Jan-10 04:33N 51°59' E 003°45'49 9.8
2017-Jan-09 23:33N 51°28' E 002°44'1111.0
2017-Jan-09 22:33N 51°17' E 002°41'  
Track history (hours):
 
Tides and Currents Weather Stations Pressure Air Temp Water Temp Dewpoint Dewpoint Depression Visibility Wind Speed Wind Dir Waves Ship Positions

Sikinos

Last reported at 2017-Jan-19 23:33 UTC. Time now 2017-Jan-19 23:35 UTC.
Position N 51°53' E 004°19'.

Length 90 m; draft 4.6 m.

Type: Ship (hazmat cat A). MMSI: 256462000.

Date/timePositionNaut miles runAvg speedWind from/ knotsBaromVisibWave heightAir tempDewpointWater temp
2017-Jan-19 23:33N 51°53' E 004°19'0 0.0
2017-Jan-19 22:27N 51°53' E 004°19'0 0.0
2017-Jan-19 21:33N 51°53' E 004°19'2 2.0
2017-Jan-19 20:33N 51°54' E 004°17'1111.4
2017-Jan-19 19:33N 51°60' E 004°01'10 9.9
2017-Jan-19 18:33N 51°59' E 003°44'1212.3
2017-Jan-19 17:33N 51°55' E 003°26'2511.4
2017-Jan-19 15:22N 51°45' E 002°48'8 9.4
2017-Jan-19 14:32N 51°38' E 002°43'1010.3
2017-Jan-19 13:33N 51°28' E 002°43'9 8.7
2017-Jan-19 12:33N 51°22' E 002°53'1212.3
2017-Jan-19 11:33N 51°21' E 003°12'1 0.9
2017-Jan-19 10:32N 51°20' E 003°12'0 0.0
2017-Jan-19 09:32N 51°20' E 003°12'0 0.0
2017-Jan-19 08:32N 51°20' E 003°12'0 0.0
2017-Jan-19 07:32N 51°20' E 003°12'0 0.0
2017-Jan-19 06:29N 51°20' E 003°12'0 0.0
2017-Jan-19 05:32N 51°20' E 003°12'0 0.0
2017-Jan-19 04:32N 51°20' E 003°12'0 0.0
2017-Jan-19 03:32N 51°20' E 003°12'0 0.0
2017-Jan-19 02:32N 51°20' E 003°12'0 0.0
2017-Jan-19 01:32N 51°20' E 003°12'3 2.9
2017-Jan-19 00:33N 51°22' E 003°09'1111.0
2017-Jan-18 23:34N 51°22' E 002°51'9 9.1
2017-Jan-18 22:33N 51°29' E 002°42'1413.0
2017-Jan-18 21:30N 51°42' E 002°42'25 8.2
2017-Jan-18 18:30N 52°03' E 003°05'1111.8
2017-Jan-18 17:33N 52°03' E 003°23'1211.9
2017-Jan-18 16:33N 52°04' E 003°43'1312.8
2017-Jan-18 15:34N 52°08' E 004°02'6 5.6
2017-Jan-18 14:30N 52°11' E 004°11'0 0.0
2017-Jan-18 13:24N 52°11' E 004°11'0 0.1
2017-Jan-18 12:30N 52°11' E 004°11'0 0.1
2017-Jan-18 11:27N 52°11' E 004°11'0 0.1
2017-Jan-18 10:33N 52°11' E 004°11'0 0.1
2017-Jan-18 08:33N 52°11' E 004°11'1 0.8
2017-Jan-18 07:29N 52°11' E 004°11'0 0.0
2017-Jan-18 06:32N 52°11' E 004°11'0 0.0
2017-Jan-18 05:32N 52°11' E 004°11'0 0.1
2017-Jan-18 04:32N 52°11' E 004°11'0 0.1
2017-Jan-18 03:32N 52°10' E 004°11'0 0.0
2017-Jan-18 02:32N 52°10' E 004°11'0 0.0
2017-Jan-18 01:32N 52°10' E 004°11'0 0.0
2017-Jan-18 00:32N 52°10' E 004°11'2 2.2
2017-Jan-17 23:33N 52°10' E 004°08'1111.5
2017-Jan-17 22:33N 52°05' E 003°51'1211.9
2017-Jan-17 21:33N 51°57' E 003°36'1312.6
2017-Jan-17 20:33N 51°54' E 003°16'1413.0
2017-Jan-17 19:31N 51°51' E 002°55'1413.5
2017-Jan-17 18:27N 51°44' E 002°35'1314.4
2017-Jan-17 17:33N 51°34' E 002°21'1514.5
2017-Jan-17 16:33N 51°22' E 002°09'1414.0
2017-Jan-17 15:33N 51°11' E 001°54'1515.5
2017-Jan-17 14:33N 51°01' E 001°36'1515.0
2017-Jan-17 13:33N 50°48' E 001°24'1413.7
2017-Jan-17 12:32N 50°36' E 001°11'5313.2
2017-Jan-17 08:33N 49°59' E 000°13'1211.6
2017-Jan-17 07:33N 49°51' W 000°00'1010.4
2017-Jan-17 06:33N 49°43' W 000°09'1312.7
2017-Jan-17 05:33N 49°31' E 000°00'6 6.0
2017-Jan-17 04:32N 49°28' E 000°09'0 0.0
2017-Jan-17 03:32N 49°28' E 000°09'0 0.0
2017-Jan-17 02:32N 49°28' E 000°09'0 0.0
2017-Jan-17 01:32N 49°28' E 000°09'0 0.0
2017-Jan-17 00:32N 49°28' E 000°09'0 0.0
2017-Jan-16 23:32N 49°28' E 000°09'0 0.0
2017-Jan-16 22:32N 49°28' E 000°09'1 1.4
2017-Jan-16 21:33N 49°29' E 000°07'9 9.0
2017-Jan-16 20:33N 49°33' W 000°06'9 9.1
2017-Jan-16 19:33N 49°42' W 000°09'10 9.9
2017-Jan-16 18:33N 49°52' W 000°09'1110.8
2017-Jan-16 17:33N 50°02' W 000°07'1212.2
2017-Jan-16 16:33N 50°14' W 000°10'1211.2
2017-Jan-16 15:28N 50°26' W 000°06'1213.3
2017-Jan-16 14:33N 50°30' E 000°12'1212.3
2017-Jan-16 13:33N 50°34' E 000°30'1111.3
2017-Jan-16 12:33N 50°40' E 000°46'2411.8
2017-Jan-16 10:32N 50°54' E 001°16'1414.7
2017-Jan-16 09:33N 51°04' E 001°32'1010.2
2017-Jan-16 08:33N 51°01' E 001°48'1111.1
2017-Jan-16 07:33N 51°03' E 002°06'4 3.3
2017-Jan-16 06:22N 51°01' E 002°11'0 0.0
2017-Jan-16 05:28N 51°01' E 002°11'0 0.0
2017-Jan-16 04:31N 51°01' E 002°11'0 0.0
2017-Jan-15 22:28N 51°01' E 002°11'0 0.0
2017-Jan-15 21:28N 51°01' E 002°11'4 4.3
2017-Jan-15 20:31N 51°03' E 002°05'9 9.4
2017-Jan-15 19:33N 51°01' E 001°51'8 8.5
2017-Jan-15 18:33N 51°06' E 002°02'1211.6
2017-Jan-15 17:29N 51°11' E 002°21'1011.0
2017-Jan-15 16:33N 51°17' E 002°32'10 9.5
2017-Jan-15 15:33N 51°22' E 002°46'10 9.6
2017-Jan-15 14:33N 51°22' E 003°01'7 6.7
2017-Jan-15 13:33N 51°21' E 003°12'0 0.0
2017-Jan-15 12:33N 51°21' E 003°12'0 0.0
2017-Jan-15 11:33N 51°21' E 003°12'0 0.0
2017-Jan-15 10:33N 51°21' E 003°12'0 0.0
2017-Jan-15 09:33N 51°21' E 003°12'0 0.0
2017-Jan-15 08:33N 51°21' E 003°12'0 0.0
2017-Jan-15 07:33N 51°21' E 003°12'0 0.0
2017-Jan-15 06:30N 51°21' E 003°12'0 0.0
2017-Jan-15 05:33N 51°21' E 003°12'0 0.0
2017-Jan-15 04:33N 51°21' E 003°12'0 0.0
2017-Jan-15 03:29N 51°21' E 003°12'0 0.0
2017-Jan-15 02:33N 51°21' E 003°12'0 0.0
2017-Jan-15 01:33N 51°21' E 003°12'0 0.0
2017-Jan-15 00:33N 51°21' E 003°12'0 0.0
2017-Jan-14 23:33N 51°21' E 003°12'4 4.0
2017-Jan-14 22:34N 51°22' E 003°06'10 9.9
2017-Jan-14 21:33N 51°22' E 002°50'9 8.5
2017-Jan-14 20:33N 51°21' E 002°36'3 2.8
2017-Jan-14 19:31N 51°20' E 002°32'0 0.1
2017-Jan-14 18:31N 51°20' E 002°32'0 0.1
2017-Jan-14 17:28N 51°20' E 002°32'0 0.1
2017-Jan-14 16:31N 51°20' E 002°32'0 0.1
2017-Jan-14 15:34N 51°20' E 002°32'0 0.0
2017-Jan-14 14:31N 51°20' E 002°32'5 4.8
2017-Jan-14 13:33N 51°21' E 002°39'5 4.7
2017-Jan-14 12:33N 51°20' E 002°32'0 0.2
2017-Jan-14 11:33N 51°20' E 002°32'0 0.1
2017-Jan-14 10:33N 51°20' E 002°31'0 0.0
2017-Jan-14 09:33N 51°20' E 002°31'0 0.0
2017-Jan-14 08:33N 51°20' E 002°32'0 0.1
2017-Jan-14 07:33N 51°20' E 002°32'0 0.1
2017-Jan-14 06:33N 51°20' E 002°32'0 0.1
2017-Jan-14 05:33N 51°20' E 002°32'0 0.0
2017-Jan-14 04:33N 51°20' E 002°32'0 0.1
2017-Jan-14 03:33N 51°20' E 002°32'0 0.0
2017-Jan-13 23:33N 51°20' E 002°32'0 0.1
2017-Jan-13 22:33N 51°20' E 002°32'0 0.0
2017-Jan-13 21:30N 51°20' E 002°31'2 2.4
2017-Jan-13 20:33N 51°18' E 002°31'6 6.2
2017-Jan-13 19:33N 51°13' E 002°26'7 7.2
2017-Jan-13 18:33N 51°10' E 002°15'7 7.3
2017-Jan-13 17:34N 51°07' E 002°04'8 8.1
2017-Jan-13 16:33N 51°04' E 001°52'3 2.6
2017-Jan-13 15:33N 51°03' E 001°56'8 8.3
2017-Jan-13 14:33N 51°03' E 002°09'2 2.2
2017-Jan-13 13:33N 51°01' E 002°11'0 0.0
2017-Jan-13 12:30N 51°01' E 002°11'0 0.0
2017-Jan-13 11:27N 51°01' E 002°11'0 0.0
2017-Jan-13 10:33N 51°01' E 002°11'0 0.0
2017-Jan-13 09:30N 51°01' E 002°11'0 0.0
2017-Jan-13 08:27N 51°01' E 002°11'0 0.0
2017-Jan-13 07:30N 51°01' E 002°11'0 0.0
2017-Jan-13 06:33N 51°01' E 002°11'0 0.0
2017-Jan-13 05:33N 51°01' E 002°11'0 0.0
2017-Jan-13 04:27N 51°01' E 002°11'0 0.0
2017-Jan-13 03:33N 51°01' E 002°11'0 0.0
2017-Jan-13 02:27N 51°01' E 002°11'0 0.0
2017-Jan-13 01:03N 51°01' E 002°11'0 0.0
2017-Jan-13 00:27N 51°01' E 002°11'0 0.0
2017-Jan-12 23:33N 51°01' E 002°11'0 0.0
2017-Jan-12 22:33N 51°01' E 002°11'0 0.0
2017-Jan-12 21:33N 51°01' E 002°11'0 0.0
2017-Jan-12 20:09N 51°01' E 002°11'0 0.0
2017-Jan-12 19:30N 51°01' E 002°11'6 6.0
2017-Jan-12 18:33N 51°03' E 002°02'7 7.3
2017-Jan-12 17:33N 51°03' E 001°51'1313.0
2017-Jan-12 16:33N 51°08' E 002°10'1212.1
2017-Jan-12 15:33N 51°14' E 002°27'1111.2
2017-Jan-12 14:34N 51°21' E 002°40'9 8.5
2017-Jan-12 13:34N 51°22' E 002°54'1010.4
2017-Jan-12 12:33N 51°22' E 003°10'2 1.7
2017-Jan-12 11:32N 51°21' E 003°12'0 0.0
2017-Jan-12 10:32N 51°21' E 003°12'0 0.0
2017-Jan-12 09:32N 51°21' E 003°12'0 0.0
2017-Jan-12 08:32N 51°21' E 003°12'0 0.0
2017-Jan-12 07:32N 51°21' E 003°12'0 0.0
2017-Jan-12 06:32N 51°21' E 003°12'0 0.0
2017-Jan-12 05:32N 51°21' E 003°12'0 0.0
2017-Jan-12 04:33N 51°21' E 003°12'0 0.0
2017-Jan-12 03:32N 51°21' E 003°12'0 0.0
2017-Jan-12 02:32N 51°21' E 003°12'0 0.0
2017-Jan-12 01:32N 51°21' E 003°12'0 0.0
2017-Jan-12 00:32N 51°21' E 003°12'0 0.0
2017-Jan-11 23:32N 51°21' E 003°12'0 0.0
2017-Jan-11 22:29N 51°21' E 003°12'0 0.0
2017-Jan-11 21:32N 51°21' E 003°12'0 0.0
2017-Jan-11 20:32N 51°21' E 003°12'0 0.0
2017-Jan-11 19:32N 51°21' E 003°12'0 0.0
2017-Jan-11 18:32N 51°21' E 003°12'0 0.0
2017-Jan-11 17:32N 51°21' E 003°12'0 0.0
2017-Jan-11 16:32N 51°21' E 003°12'0 0.0
2017-Jan-11 15:29N 51°21' E 003°12'0 0.0
2017-Jan-11 14:32N 51°21' E 003°12'0 0.0
2017-Jan-11 13:32N 51°21' E 003°12'0 0.0
2017-Jan-11 12:32N 51°21' E 003°12'0 0.0
2017-Jan-11 11:32N 51°21' E 003°12'0 0.0
2017-Jan-11 10:32N 51°21' E 003°12'0 0.0
2017-Jan-11 09:32N 51°21' E 003°12'0 0.0
2017-Jan-11 08:32N 51°21' E 003°12'12 6.1
2017-Jan-11 06:33N 51°22' E 002°53'8 8.0
2017-Jan-11 05:33N 51°26' E 002°42'55 7.8
2017-Jan-10 22:33N 52°04' E 003°46'1010.0
2017-Jan-10 21:33N 52°00' E 004°01'1211.7
2017-Jan-10 20:33N 51°54' E 004°17'1 0.5
2017-Jan-10 18:16N 51°53' E 004°17'0 0.0
2017-Jan-10 16:26N 51°53' E 004°17'0 0.0
2017-Jan-10 14:17N 51°53' E 004°17'0 0.0
2017-Jan-10 07:32N 51°53' E 004°17'2 2.3
2017-Jan-10 06:34N 51°55' E 004°15'1010.2
2017-Jan-10 05:33N 51°60' E 004°00'9 9.2
2017-Jan-10 04:33N 51°59' E 003°45'49 9.8
2017-Jan-09 23:33N 51°28' E 002°44'1111.0
2017-Jan-09 22:33N 51°17' E 002°41'  

Dump ship's entire track history